Terminal Aerodrome Forecast
Issued by NWS

Home | Current Version | Previous Version | Text Only | Print | Product List | Glossary On
Versions: 1 2 3 4 5 6 7 8 9 10 11 12 13 14 15 16
000
FTUS41 KBOX 251122
TAFFMH
TAF
KFMH 251122Z 2512/2612 08010G19KT P6SM -SHRA OVC015
     FM251800 08012G25KT 3SM -RA BR OVC008
     FM252200 10012G25KT 1SM -RA BR OVC008
     FM260200 11011G20KT 1SM -RA BR OVC003=

USA.gov is the U.S. government's official web portal to all federal, state and local government web resources and services.